Time;durP1;ratioP1;P1;durP2;ratioP2;P2;SDS_P1;SDS_P2;PMS_P1;PMS_P2;Temp;Humidity;BMP_temperature;BMP_pressure;BME280_temperature;BME280_humidity;BME280_pressure;Samples;Min_cycle;Max_cycle;Signal;HPM_P1;HPM_P2
2022/12/19 02:11:37;;;;;;;147.73;63.88;;;;;;;;;;4922106;29;20130;-92
2022/12/19 02:14:05;;;;;;;167.93;69.28;;;;;;;;;;4924315;29;20111;-92
2022/12/19 02:22:43;;;;;;;177.98;72.75;;;;;;;;;;4963357;23;20143;-90
2022/12/19 02:37:17;;;;;;;183.40;77.43;;;;;;;;;;4969247;23;20368;-92
2022/12/19 02:39:47;;;;;;;169.40;72.40;;;;;;;;;;4904496;29;20033;-91
2022/12/19 02:42:17;;;;;;;168.65;71.45;;;;;;;;;;4915364;29;20043;-91
2022/12/19 02:50:45;;;;;;;161.13;68.65;;;;;;;;;;4960369;23;20070;-90
2022/12/19 03:19:30;;;;;;;162.68;69.32;;;;;;;;;;4971305;23;20071;-91
2022/12/19 08:52:58;;;;;;;128.68;54.47;;;;;;;;;;875398;23;21331;-87
2022/12/19 08:55:24;;;;;;;120.22;53.30;;;;;;;;;;4919469;29;20055;-88
2022/12/19 08:57:50;;;;;;;112.65;50.67;;;;;;;;;;4920493;29;20412;-87
2022/12/19 09:00:16;;;;;;;146.18;64.28;;;;;;;;;;4921223;29;20035;-87
2022/12/19 09:02:42;;;;;;;153.35;68.13;;;;;;;;;;4920411;29;20047;-88
2022/12/19 09:05:08;;;;;;;133.50;56.58;;;;;;;;;;4920923;29;20419;-87
2022/12/19 09:07:35;;;;;;;145.30;67.47;;;;;;;;;;4920270;29;20123;-88
2022/12/19 09:10:02;;;;;;;146.98;63.95;;;;;;;;;;4921531;29;20035;-87
2022/12/19 09:12:28;;;;;;;145.93;64.53;;;;;;;;;;4921296;29;20043;-88
2022/12/19 09:14:54;;;;;;;129.48;59.78;;;;;;;;;;4921302;29;20024;-87
2022/12/19 09:17:20;;;;;;;132.85;61.30;;;;;;;;;;4921295;29;20032;-87
2022/12/19 09:19:46;;;;;;;123.28;55.13;;;;;;;;;;4921187;29;20020;-87
2022/12/19 09:22:12;;;;;;;119.45;53.33;;;;;;;;;;4921290;29;20044;-88
2022/12/19 09:24:39;;;;;;;123.00;54.45;;;;;;;;;;4920055;29;20028;-87
2022/12/19 09:27:05;;;;;;;118.82;54.13;;;;;;;;;;4920227;29;20101;-88
2022/12/19 09:29:31;;;;;;;126.05;54.97;;;;;;;;;;4921179;29;20016;-87
2022/12/19 09:31:57;;;;;;;118.88;52.42;;;;;;;;;;4920154;29;20028;-88
2022/12/19 09:34:30;;;;;;;138.07;59.03;;;;;;;;;;4921142;29;20031;-86
2022/12/19 09:36:57;;;;;;;136.27;56.85;;;;;;;;;;4921160;29;20039;-87
2022/12/19 09:39:23;;;;;;;145.38;60.28;;;;;;;;;;4920975;29;20035;-88
2022/12/19 09:42:09;;;;;;;139.80;55.42;;;;;;;;;;4921047;29;20076;-87
2022/12/19 09:44:55;;;;;;;134.75;53.65;;;;;;;;;;4920956;29;20111;-88
2022/12/19 09:47:23;;;;;;;143.80;56.67;;;;;;;;;;4920077;29;20024;-88
2022/12/19 09:49:52;;;;;;;166.00;65.13;;;;;;;;;;4922453;29;20060;-87
2022/12/19 09:52:23;;;;;;;176.80;70.88;;;;;;;;;;4924929;29;20028;-88
2022/12/19 09:54:52;;;;;;;127.93;56.03;;;;;;;;;;4924293;29;20048;-87
2022/12/19 09:57:38;;;;;;;160.48;64.55;;;;;;;;;;4924335;29;20032;-87
2022/12/19 10:00:11;;;;;;;225.93;87.88;;;;;;;;;;4924380;29;20106;-88
2022/12/19 10:02:37;;;;;;;156.68;68.32;;;;;;;;;;4924420;29;20017;-87
2022/12/19 10:05:06;;;;;;;133.70;60.17;;;;;;;;;;4923393;29;20036;-87
2022/12/19 10:07:32;;;;;;;127.85;55.70;;;;;;;;;;4924313;29;20043;-87
2022/12/19 10:09:58;;;;;;;120.55;52.30;;;;;;;;;;4923353;29;20040;-87
2022/12/19 10:12:24;;;;;;;119.82;53.40;;;;;;;;;;4924217;29;20079;-88
2022/12/19 10:15:03;;;;;;;130.95;56.08;;;;;;;;;;4924049;29;20111;-89
2022/12/19 10:17:51;;;;;;;129.57;56.15;;;;;;;;;;4924180;29;20036;-89
2022/12/19 10:26:39;;;;;;;191.85;80.70;;;;;;;;;;4924318;29;20120;-89
2022/12/19 10:29:19;;;;;;;155.00;67.63;;;;;;;;;;4938567;29;20072;-89
2022/12/19 10:31:58;;;;;;;144.55;61.63;;;;;;;;;;4938540;29;20360;-87
2022/12/19 10:34:52;;;;;;;163.68;64.70;;;;;;;;;;4939016;29;20032;-87
2022/12/19 10:37:52;;;;;;;188.63;67.15;;;;;;;;;;4938672;29;20087;-87
2022/12/19 10:40:18;;;;;;;173.07;67.57;;;;;;;;;;4892308;29;20040;-88
2022/12/19 10:42:47;;;;;;;152.68;64.35;;;;;;;;;;4923918;29;20028;-87
2022/12/19 10:45:18;;;;;;;120.72;55.70;;;;;;;;;;4923601;29;20028;-87
2022/12/19 10:47:47;;;;;;;114.18;48.97;;;;;;;;;;4923935;29;20331;-88
2022/12/19 10:50:50;;;;;;;108.72;49.60;;;;;;;;;;4923899;29;20028;-88
2022/12/19 10:53:16;;;;;;;116.13;51.17;;;;;;;;;;4938063;29;20032;-88
2022/12/19 10:55:50;;;;;;;118.10;54.00;;;;;;;;;;4952399;29;20052;-88
2022/12/19 10:58:19;;;;;;;117.05;49.97;;;;;;;;;;4904795;29;20031;-87
2022/12/19 11:00:54;;;;;;;108.68;49.42;;;;;;;;;;4911050;29;20411;-87
2022/12/19 11:03:20;;;;;;;113.57;49.72;;;;;;;;;;4915932;29;20036;-86
2022/12/19 11:08:49;;;;;;;146.65;61.33;;;;;;;;;;4923076;29;20042;-86
2022/12/19 11:11:15;;;;;;;158.10;63.45;;;;;;;;;;4912998;29;20052;-86
2022/12/19 11:13:45;;;;;;;142.20;60.22;;;;;;;;;;4919975;29;20039;-87
2022/12/19 11:16:12;;;;;;;170.70;77.80;;;;;;;;;;4923226;29;20068;-87
2022/12/19 11:18:45;;;;;;;150.10;68.70;;;;;;;;;;4917407;29;20076;-86
2022/12/19 11:21:11;;;;;;;;;;;;;;;;;;4928295;29;20049;-86
2022/12/19 11:23:43;;;;;;;116.03;52.05;;;;;;;;;;4941253;29;19917;-86
2022/12/19 11:26:25;;;;;;;106.57;48.00;;;;;;;;;;4928784;29;20036;-86
2022/12/19 11:28:51;;;;;;;121.43;54.58;;;;;;;;;;4923142;29;20060;-86
2022/12/19 11:31:22;;;;;;;109.30;48.88;;;;;;;;;;4918384;29;20032;-86
2022/12/19 11:33:53;;;;;;;105.65;49.90;;;;;;;;;;4918887;29;20039;-87
2022/12/19 11:36:49;;;;;;;119.38;53.95;;;;;;;;;;4909469;29;20083;-87
2022/12/19 11:39:23;;;;;;;111.65;53.08;;;;;;;;;;4933955;29;20039;-87
2022/12/19 11:41:55;;;;;;;111.85;50.40;;;;;;;;;;4902821;29;20116;-86
2022/12/19 11:44:48;;;;;;;97.57;47.20;;;;;;;;;;4912958;29;20024;-86
2022/12/19 11:47:32;;;;;;;103.50;48.22;;;;;;;;;;4920127;29;20107;-86
2022/12/19 11:50:01;;;;;;;104.40;47.83;;;;;;;;;;4937282;29;20032;-88
2022/12/19 11:52:40;;;;;;;100.63;47.17;;;;;;;;;;4922671;29;20119;-88
2022/12/19 11:55:27;;;;;;;99.70;46.85;;;;;;;;;;4936286;29;20051;-88
2022/12/19 11:57:54;;;;;;;161.50;65.50;;;;;;;;;;4922782;29;20029;-89
2022/12/19 12:00:21;;;;;;;280.27;110.82;;;;;;;;;;4922431;29;20044;-88
2022/12/19 12:02:48;;;;;;;199.40;85.05;;;;;;;;;;4929110;29;20058;-87
2022/12/19 12:05:29;;;;;;;187.93;77.78;;;;;;;;;;4938777;29;20106;-87
2022/12/19 12:08:15;;;;;;;140.18;59.10;;;;;;;;;;4921319;29;20059;-87
2022/12/19 12:10:46;;;;;;;150.68;61.72;;;;;;;;;;4911272;29;20420;-87
2022/12/19 12:13:39;;;;;;;208.25;77.10;;;;;;;;;;4932977;29;20032;-87
2022/12/19 12:16:12;;;;;;;97.72;44.33;;;;;;;;;;4911750;29;20067;-87
2022/12/19 12:18:57;;;;;;;102.38;47.88;;;;;;;;;;4939967;29;20028;-88
2022/12/19 12:21:24;;;;;;;107.10;47.00;;;;;;;;;;4923961;29;20092;-87
2022/12/19 12:24:13;;;;;;;114.60;49.58;;;;;;;;;;4921738;29;20056;-87
2022/12/19 12:27:15;;;;;;;121.13;57.17;;;;;;;;;;4921757;29;20051;-87
2022/12/19 12:29:49;;;;;;;110.30;52.20;;;;;;;;;;4882624;29;20105;-87
2022/12/19 12:32:21;;;;;;;107.22;49.88;;;;;;;;;;4881396;29;20055;-88
2022/12/19 12:38:11;;;;;;;117.80;53.70;;;;;;;;;;4877936;29;20040;-88
2022/12/19 12:40:57;;;;;;;127.53;57.60;;;;;;;;;;4901076;29;20040;-88
2022/12/19 12:43:41;;;;;;;118.13;51.65;;;;;;;;;;4896840;29;20112;-88
2022/12/19 12:46:12;;;;;;;124.47;52.88;;;;;;;;;;4882314;29;20123;-87
2022/12/19 12:48:51;;;;;;;126.68;55.20;;;;;;;;;;4882326;29;20048;-88
2022/12/19 12:51:35;;;;;;;129.65;58.15;;;;;;;;;;4882139;29;20033;-88
2022/12/19 12:54:06;;;;;;;134.65;56.35;;;;;;;;;;4881832;29;20131;-87
2022/12/19 12:56:32;;;;;;;134.65;55.58;;;;;;;;;;4882139;29;20049;-87
2022/12/19 12:59:03;;;;;;;144.07;57.35;;;;;;;;;;4880935;29;20096;-88
2022/12/19 13:01:29;;;;;;;192.57;64.60;;;;;;;;;;4881686;29;20120;-88
2022/12/19 13:03:57;;;;;;;170.68;59.47;;;;;;;;;;4902916;29;20060;-89
2022/12/19 13:09:34;;;;;;;253.82;77.88;;;;;;;;;;4911094;29;20038;-88
2022/12/19 13:14:46;;;;;;;195.43;83.55;;;;;;;;;;4920973;29;20047;-89
2022/12/19 13:17:18;;;;;;;142.48;59.95;;;;;;;;;;4908539;29;20025;-88
2022/12/19 13:22:57;;;;;;;158.30;61.40;;;;;;;;;;4902497;29;20053;-88
2022/12/19 13:25:25;;;;;;;159.98;64.60;;;;;;;;;;4910621;29;20033;-88
2022/12/19 13:28:12;;;;;;;173.07;71.13;;;;;;;;;;4920658;29;20039;-88
2022/12/19 13:30:58;;;;;;;150.75;62.58;;;;;;;;;;4833368;29;20082;-88
2022/12/19 13:33:24;;;;;;;153.20;64.45;;;;;;;;;;4865131;29;20337;-89
2022/12/19 13:35:51;;;;;;;134.60;56.78;;;;;;;;;;4867048;29;20051;-89
2022/12/19 13:38:21;;;;;;;133.38;56.85;;;;;;;;;;4867044;29;20064;-89
2022/12/19 13:40:50;;;;;;;141.50;58.30;;;;;;;;;;4867219;29;20033;-87
2022/12/19 13:46:06;;;;;;;136.88;58.20;;;;;;;;;;4867146;29;20337;-89
2022/12/19 13:48:39;;;;;;;131.30;55.00;;;;;;;;;;4866210;29;20045;-87
2022/12/19 13:51:09;;;;;;;119.53;51.53;;;;;;;;;;4866369;29;20033;-90
2022/12/19 13:53:35;;;;;;;144.05;60.83;;;;;;;;;;4866473;29;20045;-89
2022/12/19 13:56:03;;;;;;;135.25;57.67;;;;;;;;;;4866887;29;20044;-88
2022/12/19 13:58:30;;;;;;;167.73;67.15;;;;;;;;;;4866696;29;20074;-89
2022/12/19 14:01:00;;;;;;;178.23;71.55;;;;;;;;;;4866573;29;20425;-89
2022/12/19 14:03:34;;;;;;;117.90;48.95;;;;;;;;;;4866625;29;20102;-89
2022/12/19 14:09:07;;;;;;;110.55;45.90;;;;;;;;;;4905822;29;20052;-89
2022/12/19 14:11:43;;;;;;;106.10;44.97;;;;;;;;;;4905401;29;20415;-89
2022/12/19 14:17:15;;;;;;;116.80;48.83;;;;;;;;;;4919820;29;20079;-89
2022/12/19 14:19:42;;;;;;;105.25;44.38;;;;;;;;;;4920052;29;20066;-89
2022/12/19 14:22:13;;;;;;;111.93;48.00;;;;;;;;;;4918005;29;20107;-89
2022/12/19 14:24:39;;;;;;;108.60;45.17;;;;;;;;;;4938344;29;20039;-88
2022/12/19 14:27:17;;;;;;;127.00;48.47;;;;;;;;;;4938999;29;20024;-89
2022/12/19 14:29:50;;;;;;;123.30;45.80;;;;;;;;;;4923929;29;20024;-89
2022/12/19 14:32:16;;;;;;;233.75;71.15;;;;;;;;;;4938755;29;20475;-90
2022/12/19 14:34:43;;;;;;;145.60;54.67;;;;;;;;;;4923448;29;20320;-89
2022/12/19 14:46:22;;;;;;;111.13;43.90;;;;;;;;;;4906326;29;20414;-89
2022/12/19 14:48:50;;;;;;;112.07;43.83;;;;;;;;;;4913221;29;20164;-89
2022/12/19 14:51:22;;;;;;;103.90;43.72;;;;;;;;;;4919585;29;20028;-89
2022/12/19 14:57:15;;;;;;;105.20;38.55;;;;;;;;;;4904661;29;20583;-88
2022/12/19 14:59:44;;;;;;;117.38;37.40;;;;;;;;;;4904706;29;20316;-88
2022/12/19 15:02:25;;;;;;;97.40;38.35;;;;;;;;;;4919339;29;20436;-89
2022/12/19 15:07:56;;;;;;;107.15;39.95;;;;;;;;;;4904664;29;20031;-88
2022/12/19 15:10:27;;;;;;;104.80;42.00;;;;;;;;;;4919128;29;20056;-88
2022/12/19 15:15:44;;;;;;;85.07;36.83;;;;;;;;;;4904314;29;20047;-88
2022/12/19 15:18:30;;;;;;;94.25;41.80;;;;;;;;;;4918603;29;20041;-89
2022/12/19 15:20:58;;;;;;;97.47;40.13;;;;;;;;;;4903977;29;20374;-88
2022/12/19 15:23:24;;;;;;;93.88;41.72;;;;;;;;;;4904263;29;20060;-88
2022/12/19 15:25:51;;;;;;;87.65;37.58;;;;;;;;;;4918979;29;20029;-88
2022/12/19 15:28:19;;;;;;;90.72;38.00;;;;;;;;;;4904156;29;20041;-88
2022/12/19 15:30:52;;;;;;;114.82;42.47;;;;;;;;;;4903111;29;20028;-89
2022/12/19 15:33:18;;;;;;;109.82;44.95;;;;;;;;;;4903999;29;20032;-88
2022/12/19 15:35:44;;;;;;;108.57;46.88;;;;;;;;;;4918608;29;20025;-88
2022/12/19 15:38:10;;;;;;;92.43;39.45;;;;;;;;;;4918612;29;20033;-89
2022/12/19 15:40:41;;;;;;;95.80;43.58;;;;;;;;;;4918563;29;20111;-87
2022/12/19 15:43:15;;;;;;;111.20;48.38;;;;;;;;;;4918441;29;20028;-88
2022/12/19 15:45:41;;;;;;;119.75;51.42;;;;;;;;;;4903691;29;20039;-88
2022/12/19 15:48:08;;;;;;;113.90;47.15;;;;;;;;;;4903531;29;20185;-88
2022/12/19 15:50:35;;;;;;;106.47;45.42;;;;;;;;;;4903619;29;20029;-88
2022/12/19 15:53:01;;;;;;;112.85;46.10;;;;;;;;;;4903814;29;20455;-88
2022/12/19 15:55:29;;;;;;;96.53;41.67;;;;;;;;;;4918100;29;20072;-88
2022/12/19 15:58:00;;;;;;;88.32;40.35;;;;;;;;;;4903640;29;20047;-87
2022/12/19 16:00:28;;;;;;;125.82;52.25;;;;;;;;;;4903536;29;20029;-87
2022/12/19 16:02:54;;;;;;;96.85;42.58;;;;;;;;;;4920213;29;20028;-87
2022/12/19 16:05:21;;;;;;;99.85;43.03;;;;;;;;;;4921274;29;20058;-88
2022/12/19 16:07:47;;;;;;;92.15;41.45;;;;;;;;;;4922370;29;20036;-87
2022/12/19 16:10:14;;;;;;;100.55;43.17;;;;;;;;;;4922374;29;20047;-87
2022/12/19 16:12:49;;;;;;;100.00;43.75;;;;;;;;;;4922058;29;20039;-87
2022/12/19 16:15:38;;;;;;;93.65;41.20;;;;;;;;;;4921030;29;20024;-87
2022/12/19 16:18:04;;;;;;;97.88;40.55;;;;;;;;;;4921081;29;20027;-86
2022/12/19 16:20:33;;;;;;;115.70;43.97;;;;;;;;;;4921155;29;20122;-88
2022/12/19 16:22:59;;;;;;;128.13;45.83;;;;;;;;;;4921875;29;20107;-87
2022/12/19 16:25:30;;;;;;;137.25;47.40;;;;;;;;;;4922091;29;20039;-88
2022/12/19 16:27:57;;;;;;;148.20;53.20;;;;;;;;;;4921568;29;20323;-88
2022/12/19 16:30:25;;;;;;;99.43;41.22;;;;;;;;;;4904727;29;20416;-87
2022/12/19 16:32:51;;;;;;;95.00;40.42;;;;;;;;;;4921973;29;20036;-88
2022/12/19 16:35:19;;;;;;;193.18;60.80;;;;;;;;;;4921597;29;20032;-89
2022/12/19 16:37:45;;;;;;;276.15;96.75;;;;;;;;;;4921602;29;20044;-88
2022/12/19 16:40:18;;;;;;;257.95;93.40;;;;;;;;;;4921874;29;20032;-89
2022/12/19 16:42:45;;;;;;;262.00;100.30;;;;;;;;;;4921531;29;20103;-88
2022/12/19 16:45:19;;;;;;;209.35;89.15;;;;;;;;;;4920604;29;20038;-87
2022/12/19 16:47:46;;;;;;;156.52;68.10;;;;;;;;;;4912917;29;20487;-89
2022/12/19 16:50:17;;;;;;;150.10;63.67;;;;;;;;;;4917445;29;20083;-89
2022/12/19 16:52:43;;;;;;;137.23;64.03;;;;;;;;;;4931231;29;20392;-88
2022/12/19 16:55:09;;;;;;;143.27;68.80;;;;;;;;;;4905130;29;20048;-88
2022/12/19 16:57:35;;;;;;;134.27;64.38;;;;;;;;;;4921301;29;20033;-88
2022/12/19 17:00:01;;;;;;;122.82;57.95;;;;;;;;;;4921021;29;20430;-88
2022/12/19 17:02:27;;;;;;;109.85;51.85;;;;;;;;;;4921356;29;20028;-88
2022/12/19 17:04:53;;;;;;;108.28;49.67;;;;;;;;;;4921051;29;20107;-88
2022/12/19 17:07:56;;;;;;;114.45;51.25;;;;;;;;;;4921346;29;20043;-88
2022/12/19 17:10:24;;;;;;;105.00;49.85;;;;;;;;;;4932170;29;20025;-90
2022/12/19 17:12:50;;;;;;;112.53;54.35;;;;;;;;;;4921022;29;20028;-88
2022/12/19 17:15:42;;;;;;;122.40;55.00;;;;;;;;;;4935603;29;20039;-88
2022/12/19 17:18:11;;;;;;;114.65;51.88;;;;;;;;;;4919325;29;20115;-87
2022/12/19 17:23:41;;;;;;;122.97;52.35;;;;;;;;;;4921355;29;20471;-88
2022/12/19 17:26:08;;;;;;;163.27;72.50;;;;;;;;;;4936045;29;20036;-86
2022/12/19 17:28:34;;;;;;;139.07;62.97;;;;;;;;;;4935789;29;20036;-87
2022/12/19 17:31:03;;;;;;;120.88;56.90;;;;;;;;;;4916300;29;20103;-87
2022/12/19 17:33:36;;;;;;;132.02;60.15;;;;;;;;;;4935844;29;20123;-87
2022/12/19 17:39:17;;;;;;;127.88;57.97;;;;;;;;;;4902184;29;20149;-90
2022/12/19 17:41:43;;;;;;;126.05;56.22;;;;;;;;;;4933580;29;20063;-89
2022/12/19 17:44:10;;;;;;;119.60;53.58;;;;;;;;;;4916602;29;20021;-88
2022/12/19 17:46:37;;;;;;;105.75;51.15;;;;;;;;;;4935678;29;20055;-88
2022/12/19 17:49:04;;;;;;;99.97;46.85;;;;;;;;;;4907676;29;20048;-88
2022/12/19 17:51:50;;;;;;;87.53;43.85;;;;;;;;;;4923882;29;20127;-88
2022/12/19 17:54:17;;;;;;;92.65;41.85;;;;;;;;;;4928722;29;20047;-87
2022/12/19 17:56:43;;;;;;;81.72;40.05;;;;;;;;;;4918693;29;20426;-87
2022/12/19 17:59:09;;;;;;;76.38;37.58;;;;;;;;;;4902431;29;20057;-88
2022/12/19 18:01:36;;;;;;;78.30;37.50;;;;;;;;;;4935675;29;20060;-88
2022/12/19 18:04:03;;;;;;;74.00;33.47;;;;;;;;;;4935093;29;20028;-89
2022/12/19 18:12:37;;;;;;;69.85;33.30;;;;;;;;;;4924397;29;20035;-88
2022/12/19 18:15:03;;;;;;;74.55;36.20;;;;;;;;;;4920311;29;20032;-91
2022/12/19 18:17:32;;;;;;;69.60;34.42;;;;;;;;;;4926586;29;20036;-89
2022/12/19 18:19:59;;;;;;;67.90;37.05;;;;;;;;;;4922739;29;20059;-90
2022/12/19 18:22:25;;;;;;;57.17;30.60;;;;;;;;;;4938780;29;20040;-92
2022/12/19 18:24:51;;;;;;;53.95;28.08;;;;;;;;;;4924012;29;20028;-90
2022/12/19 18:27:17;;;;;;;59.13;30.02;;;;;;;;;;4911389;29;20427;-91
2022/12/19 18:29:43;;;;;;;52.10;26.33;;;;;;;;;;4904993;29;20027;-90
2022/12/19 18:32:16;;;;;;;57.10;28.63;;;;;;;;;;4933645;29;20062;-89
2022/12/19 18:34:42;;;;;;;54.35;26.75;;;;;;;;;;4926232;29;20023;-90
2022/12/19 18:40:37;;;;;;;67.43;32.33;;;;;;;;;;4907302;29;20036;-89
2022/12/19 18:43:03;;;;;;;54.45;26.40;;;;;;;;;;4938461;29;20510;-90
2022/12/19 18:45:37;;;;;;;57.38;28.60;;;;;;;;;;4938718;29;20411;-91
2022/12/19 18:48:06;;;;;;;54.95;27.85;;;;;;;;;;4938605;29;20032;-90
2022/12/19 18:50:33;;;;;;;50.22;25.85;;;;;;;;;;4921200;29;20352;-90
2022/12/19 18:56:04;;;;;;;44.88;24.13;;;;;;;;;;4904161;29;20462;-90
2022/12/19 18:58:30;;;;;;;44.10;24.13;;;;;;;;;;4905927;29;20058;-90
2022/12/19 19:00:57;;;;;;;67.43;39.50;;;;;;;;;;4917393;29;20067;-88
2022/12/19 19:03:26;;;;;;;59.70;30.60;;;;;;;;;;4904586;29;20024;-89
2022/12/19 19:09:33;;;;;;;75.78;39.05;;;;;;;;;;4904818;29;20035;-90
2022/12/19 19:12:00;;;;;;;66.15;33.83;;;;;;;;;;4919199;29;20028;-90
2022/12/19 19:14:26;;;;;;;85.18;41.78;;;;;;;;;;4923231;29;20422;-91
2022/12/19 19:16:52;;;;;;;123.43;63.05;;;;;;;;;;4922358;29;20048;-89
2022/12/19 19:19:18;;;;;;;104.35;51.28;;;;;;;;;;4922189;29;20068;-88
2022/12/19 19:30:56;;;;;;;83.53;40.63;;;;;;;;;;4913163;29;20106;-89
2022/12/19 19:33:24;;;;;;;76.93;37.67;;;;;;;;;;4922676;29;20084;-89
2022/12/19 19:35:53;;;;;;;65.30;32.17;;;;;;;;;;4907330;29;20042;-88
2022/12/19 19:38:39;;;;;;;80.65;41.25;;;;;;;;;;4927240;29;20037;-88
2022/12/19 19:41:05;;;;;;;102.78;49.30;;;;;;;;;;4922737;29;20024;-88
2022/12/19 19:43:33;;;;;;;63.95;29.80;;;;;;;;;;4933101;29;20047;-88
2022/12/19 19:46:00;;;;;;;66.90;30.88;;;;;;;;;;4922786;29;20025;-88
2022/12/19 19:48:26;;;;;;;60.90;31.20;;;;;;;;;;4922905;29;20030;-88
2022/12/19 19:50:52;;;;;;;66.85;32.92;;;;;;;;;;4937424;29;20039;-89
2022/12/19 19:53:18;;;;;;;69.43;35.50;;;;;;;;;;4937188;29;20036;-89
2022/12/19 19:55:44;;;;;;;59.85;30.55;;;;;;;;;;4936977;29;20435;-90
2022/12/19 19:58:10;;;;;;;65.03;33.65;;;;;;;;;;4937168;29;20412;-89
2022/12/19 20:00:36;;;;;;;66.30;33.63;;;;;;;;;;4914573;29;20043;-88
2022/12/19 20:03:03;;;;;;;61.95;32.42;;;;;;;;;;4920432;29;20016;-87
2022/12/19 20:05:29;;;;;;;70.32;34.35;;;;;;;;;;4922597;29;20024;-89
2022/12/19 20:10:59;;;;;;;67.25;32.15;;;;;;;;;;4922358;29;20071;-88
2022/12/19 20:13:25;;;;;;;71.45;35.05;;;;;;;;;;4922327;29;20032;-89
2022/12/19 20:15:51;;;;;;;80.28;37.78;;;;;;;;;;4922715;29;20056;-92
2022/12/19 20:18:18;;;;;;;58.30;27.38;;;;;;;;;;4908177;29;20384;-89
2022/12/19 20:20:46;;;;;;;65.70;32.55;;;;;;;;;;4936570;29;20044;-87
2022/12/19 20:23:12;;;;;;;58.90;27.98;;;;;;;;;;4921769;29;20040;-88
2022/12/19 20:25:39;;;;;;;81.57;37.85;;;;;;;;;;4920905;29;20047;-89
2022/12/19 20:28:05;;;;;;;54.65;26.27;;;;;;;;;;4921750;29;20028;-89
2022/12/19 20:30:31;;;;;;;54.47;25.77;;;;;;;;;;4920823;29;20055;-88
2022/12/19 20:32:59;;;;;;;56.88;26.55;;;;;;;;;;4921283;29;20032;-88
2022/12/19 20:35:26;;;;;;;57.97;25.88;;;;;;;;;;4921522;29;20150;-88
2022/12/19 20:41:07;;;;;;;56.33;26.67;;;;;;;;;;4979268;23;20059;-88
2022/12/19 21:25:18;;;;;;;93.95;35.35;;;;;;;;;;4992219;23;20465;-87
2022/12/19 21:27:45;;;;;;;68.80;26.75;;;;;;;;;;4920555;29;20036;-87
